Nearby METAR Reports

 

KIAD - Wash Dc/Dulles, Virginia, USA
Distance from station: ESE 7mi, 11km
Updated: Tue, 23-Oct-2018 7:52am EDT
Mostly cloudy
Mostly cloudy
 Wind from calm
Wind: Calm
Temperature: 39°F , 4°C
Dew Point: 39°F , 4°C
Humidity: 100%
Barometer: 30.10 inHg , 1019.3 hPa
Clouds: Mostly cloudy
Visibility: 10 miles , 16 km
Cloud details: Partly cloudy 11000 ft
Mostly cloudy 25000 ft
2018/10/23 11:52 KIAD 231152Z 00000KT 10SM SCT110 BKN250 04/04 A3010 RMK AO2 SLP193 T00440044 10078 20028 53001
KJYO - Leesburg/Godfrey, Virginia, USA
Distance from station: N 7mi, 12km
Updated: Tue, 23-Oct-2018 8:35am EDT
Clear
Clear
 Wind from calm
Wind: Calm
Temperature: 43°F , 6°C
Dew Point: 43°F , 6°C
Humidity: 100%
Barometer: 30.11 inHg , 1019.6 hPa
Clouds: Clear
Visibility: 10 miles , 16 km
2018/10/23 12:35 KJYO 231235Z AUTO 00000KT 10SM CLR 06/06 A3011 RMK AO2
 
KHEF - Manassas Muni, Virginia, USA
Distance from station: S 17mi, 28km
Updated: Tue, 23-Oct-2018 7:56am EDT
Clear
Clear
 Wind from calm
Wind: Calm
Temperature: 37°F , 3°C
Dew Point: 37°F , 3°C
Humidity: 100%
Barometer: 30.11 inHg , 1019.6 hPa
Clouds: Clear
Visibility: 10 miles , 16 km
2018/10/23 11:56 KHEF 231156Z 00000KT 10SM CLR 03/03 A3011 RMK AO2 SLP209 6//// 7//// T00280028 10044 20017 53002 PNO $
KGAI - Gaithersburg, Maryland, USA
Distance from station: NE 26mi, 41km
Updated: Tue, 23-Oct-2018 7:56am EDT
Clear
Clear
 Wind from calm
Wind: Calm
Temperature: 39°F , 4°C
Dew Point: 39°F , 4°C
Humidity: 100%
Barometer: 30.10 inHg , 1019.3 hPa
Clouds: Clear
Visibility: 10 miles , 16 km
2018/10/23 11:56 KGAI 231156Z AUTO 00000KT 10SM CLR 04/04 A3010 RMK AO2 SLP225 T00440039 10089 20039 53001
 
KDAA - Fort Belvoir/Dav, Virginia, USA
Distance from station: SE 27mi, 44km
Updated: Tue, 23-Oct-2018 7:56am EDT
Clear
Clear
 Wind from calm
Wind: Calm
Temperature: 37°F , 3°C
Dew Point: 37°F , 3°C
Humidity: 100%
Barometer: 30.10 inHg , 1019.3 hPa
Clouds: Clear
Visibility: 10 miles , 16 km
2018/10/23 11:56 KDAA 231156Z AUTO 00000KT 10SM CLR 03/03 A3010 RMK AO2 SLP196 T00340034 10056 20030 53001 TSNO $
KHWY - Warrenton, Virginia, USA
Distance from station: SSW 27mi, 44km
Updated: Tue, 23-Oct-2018 8:35am EDT
Clear
Clear
 Wind from calm
Wind: Calm
Temperature: 43°F , 6°C
Dew Point: 39°F , 4°C
Humidity: 87%
Barometer: 30.11 inHg , 1019.6 hPa
Clouds: Clear
Visibility: 10 miles , 16 km
2018/10/23 12:35 KHWY 231235Z AUTO 00000KT 10SM CLR 06/04 A3011 RMK AO2 T00600039
 
KDCA - Washington/Natl, Washington D.c., USA
Distance from station: ESE 30mi, 48km
Updated: Tue, 23-Oct-2018 7:52am EDT
Few Clouds
Few Clouds
 Wind from SSW
Wind: SSW 5 mph , 7 km/h
Temperature: 46°F , 8°C
Wind Chill: 44°F , 7°C
Dew Point: 43°F , 6°C
Humidity: 87%
Barometer: 30.11 inHg , 1019.6 hPa
Clouds: Few Clouds
Visibility: 10 miles , 16 km
Cloud details: Few Clouds 16000 ft
Few Clouds 25000 ft
2018/10/23 11:52 KDCA 231152Z 21004KT 10SM FEW160 FEW250 08/06 A3011 RMK AO2 SLP196 T00830056 10100 20072 53001
KFDK - Frederick, Maryland, USA
Distance from station: NNE 33mi, 53km
Updated: Tue, 23-Oct-2018 7:47am EDT
Clear
Clear
 Wind from calm
Wind: Calm
Temperature: 41°F , 5°C
Dew Point: 39°F , 4°C
Humidity: 93%
Barometer: 30.12 inHg , 1020 hPa
Clouds: Clear
Visibility: 10 miles , 16 km
2018/10/23 11:47 KFDK 231147Z 00000KT 10SM SKC 05/04 A3012
 
KOKV - Winchester Rgnl, Virginia, USA
Distance from station: WNW 33mi, 54km
Updated: Tue, 23-Oct-2018 8:35am EDT
Partly cloudy
Partly cloudy
 Wind from SW
Wind: SW 5 mph , 7 km/h
Temperature: 45°F , 7°C
Wind Chill: 42°F , 6°C
Dew Point: 36°F , 2°C
Humidity: 71%
Barometer: 30.11 inHg , 1019.6 hPa
Clouds: Partly cloudy
Visibility: 10 miles , 16 km
Cloud details: Partly cloudy 6500 ft
2018/10/23 12:35 KOKV 231235Z AUTO 23004KT 10SM SCT065 07/02 A3011 RMK AO2
KCJR - Culpeper, Virginia, USA
Distance from station: SSW 34mi, 54km
Updated: Tue, 23-Oct-2018 8:35am EDT
Clear
Clear
 Wind from calm
Wind: Calm
Temperature: 41°F , 5°C
Dew Point: 39°F , 4°C
Humidity: 93%
Barometer: 30.13 inHg , 1020.3 hPa
Clouds: Clear
Visibility: 10 miles , 16 km
2018/10/23 12:35 KCJR 231235Z AUTO 00000KT 10SM CLR 05/04 A3013 RMK AO2 T00450038
 
KCGS - College Park, Maryland, USA
Distance from station: E 35mi, 56km
Updated: Tue, 23-Oct-2018 8:22am EDT
Clear
Clear
 Wind from calm
Wind: Calm
Temperature: 43°F , 6°C
Dew Point: 41°F , 5°C
Humidity: 93%
Barometer: 30.10 inHg , 1019.3 hPa
Clouds: Clear
Visibility: 10 miles , 16 km
2018/10/23 12:22 KCGS 231222Z AUTO 00000KT 10SM CLR 06/05 A3010 RMK AO1 T00580052
KNYG - Quantico Mcaf, Virginia, USA
Distance from station: SSE 35mi, 57km
Updated: Tue, 23-Oct-2018 7:56am EDT
Few Clouds
Few Clouds
 Wind from W
Wind: W 3 mph , 6 km/h
Temperature: 43°F , 6°C
Dew Point: 41°F , 5°C
Humidity: 93%
Barometer: 30.12 inHg , 1020 hPa
Clouds: Few Clouds
Visibility: 10 miles , 16 km
Cloud details: Few Clouds 12000 ft
Few Clouds 22000 ft
2018/10/23 11:56 KNYG 231156Z 28003KT 10SM FEW120 FEW220 06/05 A3012 RMK AO2 SLP200 T00560050 10089 20056 58000 $
 
KFRR - Fort Royal, Virginia, USA
Distance from station: W 37mi, 59km
Updated: Tue, 23-Oct-2018 8:35am EDT
Clear
Clear
 Wind from S
Wind: S 5 mph , 7 km/h
Temperature: 43°F , 6°C
Wind Chill: 40°F , 4°C
Dew Point: 39°F , 4°C
Humidity: 87%
Barometer: 30.10 inHg , 1019.3 hPa
Clouds: Clear
Visibility: 10 miles , 16 km
2018/10/23 12:35 KFRR 231235Z AUTO 17004KT 10SM CLR 06/04 A3010 RMK AO1
KMRB - Martinsburg, West Virginia, USA
Distance from station: NW 38mi, 61km
Updated: Tue, 23-Oct-2018 7:53am EDT
Mostly cloudy
Mostly cloudy
 Wind from SSW
Wind: SSW 3 mph , 6 km/h
Temperature: 39°F , 4°C
Dew Point: 39°F , 4°C
Humidity: 100%
Barometer: 30.07 inHg , 1018.3 hPa
Clouds: Mostly cloudy
Visibility: 10 miles , 16 km
Cloud details: Mostly cloudy 7000 ft
2018/10/23 11:53 KMRB 231153Z 20003KT 10SM BKN070 04/04 A3007 RMK AO2 SLP185 T00440039 10072 20033 51001
 
KADW - Andrews Afb, Maryland, USA
Distance from station: ESE 39mi, 63km
Updated: Tue, 23-Oct-2018 7:56am EDT
Clear
Clear
 Wind from SW
Wind: SW 5 mph , 7 km/h
Temperature: 41°F , 5°C
Wind Chill: 38°F , 3°C
Dew Point: 39°F , 4°C
Humidity: 93%
Barometer: 30.09 inHg , 1019 hPa
Clouds: Clear
Visibility: 10 miles , 16 km
2018/10/23 11:56 KADW 231156Z AUTO 22004KT 10SM CLR 05/04 A3009 RMK AO2 SLP198 T00500038 10089 20048 50001 $
KRMN - Stafford Regnl, Virginia, USA
Distance from station: S 39mi, 63km
Updated: Tue, 23-Oct-2018 8:35am EDT
Clear
Clear
 Wind from calm
Wind: Calm
Temperature: 41°F , 5°C
Dew Point: 41°F , 5°C
Humidity: 100%
Barometer: 30.15 inHg , 1021 hPa
Clouds: Clear
Visibility: 10 miles , 16 km
2018/10/23 12:35 KRMN 231235Z AUTO 00000KT 10SM CLR 05/05 A3015 RMK AO2 T00490049
 
KFME - Fort Meade, Maryland, USA
Distance from station: ENE 44mi, 70km
Updated: Tue, 23-Oct-2018 8:21am EDT
Clear
Clear
 Wind from calm
Wind: Calm
Temperature: 41°F , 5°C
Dew Point: 39°F , 4°C
Humidity: 93%
Barometer: 30.13 inHg , 1020.3 hPa
Clouds: Clear
Visibility: 10 miles , 16 km
2018/10/23 12:21 KFME 231221Z AUTO 00000KT 10SM CLR 05/04 A3013 RMK AO1
KRSP - Nsf Thurmont, Maryland, USA
Distance from station: N 48mi, 77km
Updated: Tue, 23-Oct-2018 7:54am EDT
Clear
Clear
 Wind from WNW
Wind: WNW 12 mph , 19 km/h, Gust: 18 mph , 30 km/h
Temperature: 48°F , 9°C
Wind Chill: 43°F , 6°C
Dew Point: 34°F , 1°C
Humidity: 58%
Barometer: 30.05 inHg , 1017.6 hPa
Clouds: Clear
Visibility: 10 miles , 16 km
2018/10/23 11:54 KRSP 231154Z AUTO 30010G16KT 270V330 10SM CLR 09/01 A3005 RMK AO2 SLP188 T00890006 10100 20078 55001 $
 
KEZF - Fredericksb/Shan, Virginia, USA
Distance from station: S 48mi, 78km
Updated: Tue, 23-Oct-2018 8:15am EDT
Clear
Clear
 Wind from calm
Wind: Calm
Temperature: 41°F , 5°C
Dew Point: 41°F , 5°C
Humidity: 100%
Barometer: 30.12 inHg , 1020 hPa
Clouds: Clear
Visibility: 10 miles , 16 km
2018/10/23 12:15 KEZF 231215Z AUTO 00000KT 10SM CLR 05/05 A3012 RMK AO2 T00450045
KBWI - Balto/Wash Intl, Maryland, USA
Distance from station: ENE 49mi, 80km
Updated: Tue, 23-Oct-2018 7:54am EDT
Partly cloudy
Partly cloudy
 Wind from WSW
Wind: WSW 3 mph , 6 km/h
Temperature: 43°F , 6°C
Dew Point: 41°F , 5°C
Humidity: 93%
Barometer: 30.08 inHg , 1018.6 hPa
Clouds: Partly cloudy
Visibility: 10 miles , 16 km
Cloud details: Few Clouds 10000 ft
Partly cloudy 18000 ft
2018/10/23 11:54 KBWI 231154Z 25003KT 10SM FEW100 SCT180 06/05 A3008 RMK AO2 SLP187 T00610050 10089 20056 55000